createdAt,value
2023-04-12T00:01:04.899Z,14.60
2023-04-12T00:03:34.158Z,10.23
2023-04-12T00:06:03.452Z,8.68
2023-04-12T00:08:33.883Z,7.97
2023-04-12T00:11:02.349Z,11.45
2023-04-12T00:13:30.447Z,11.35
2023-04-12T00:15:57.512Z,12.05
2023-04-12T00:18:25.385Z,8.43
2023-04-12T00:20:53.237Z,9.82
2023-04-12T00:23:20.732Z,8.20
2023-04-12T00:25:48.138Z,8.23
2023-04-12T00:28:16.024Z,10.13
2023-04-12T00:30:44.966Z,9.82
2023-04-12T00:33:11.980Z,9.68
2023-04-12T00:35:38.953Z,9.52
2023-04-12T00:38:10.386Z,10.43
2023-04-12T00:40:42.743Z,11.02
2023-04-12T00:43:15.639Z,10.13
2023-04-12T00:45:42.777Z,9.02
2023-04-12T00:48:10.798Z,11.05
2023-04-12T00:50:37.807Z,11.88
2023-04-12T00:53:04.759Z,13.63
2023-04-12T00:55:32.154Z,9.20
2023-04-12T00:57:59.384Z,10.18
2023-04-12T01:00:26.434Z,9.88
2023-04-12T01:02:53.826Z,10.82
2023-04-12T01:05:23.833Z,12.52
2023-04-12T01:08:26.098Z,10.52
2023-04-12T01:11:26.011Z,8.70
2023-04-12T01:14:07.495Z,10.07
2023-04-12T01:16:58.096Z,10.88
2023-04-12T01:19:35.563Z,8.63
2023-04-12T01:22:09.122Z,11.57
2023-04-12T01:25:14.200Z,9.70
2023-04-12T01:27:51.005Z,10.13
2023-04-12T01:30:20.545Z,9.27
2023-04-12T01:32:51.419Z,10.65
2023-04-12T01:35:21.304Z,9.73
2023-04-12T01:37:48.442Z,9.82
2023-04-12T01:40:18.837Z,10.18
2023-04-12T01:42:46.259Z,10.80
2023-04-12T01:45:13.166Z,8.30
2023-04-12T01:47:40.203Z,13.05
2023-04-12T01:50:25.635Z,9.40
2023-04-12T01:53:13.999Z,10.75
2023-04-12T01:55:45.881Z,9.52
2023-04-12T01:58:15.361Z,10.60
2023-04-12T02:00:45.151Z,10.13
2023-04-12T02:03:12.791Z,11.75
2023-04-12T02:05:40.327Z,11.77
2023-04-12T02:08:07.546Z,10.38
2023-04-12T02:10:36.667Z,10.93
2023-04-12T02:13:04.331Z,10.77
2023-04-12T02:15:31.678Z,11.82
2023-04-12T02:18:00.448Z,14.82
2023-04-12T02:20:28.174Z,13.52
2023-04-12T02:22:55.321Z,14.23
2023-04-12T02:25:22.365Z,16.30
2023-04-12T02:27:49.535Z,15.75
2023-04-12T02:30:17.029Z,16.40
2023-04-12T02:32:48.169Z,15.18
2023-04-12T02:35:22.814Z,13.65
2023-04-12T02:37:54.931Z,14.30
2023-04-12T02:40:24.026Z,13.77
2023-04-12T02:42:51.713Z,13.13
2023-04-12T02:45:19.089Z,16.27
2023-04-12T02:47:46.146Z,16.13
2023-04-12T02:50:13.303Z,16.25
2023-04-12T02:52:52.783Z,16.42
2023-04-12T02:55:19.776Z,16.83
2023-04-12T02:57:48.543Z,13.75
2023-04-12T03:00:16.907Z,18.33
2023-04-12T03:02:52.968Z,16.10
2023-04-12T03:05:27.558Z,15.77
2023-04-12T03:07:55.387Z,16.40
2023-04-12T03:10:29.836Z,18.00
2023-04-12T03:13:02.259Z,14.93
2023-04-12T03:15:37.795Z,16.58
2023-04-12T03:18:05.474Z,17.45
2023-04-12T03:20:46.039Z,16.08
2023-04-12T03:23:14.661Z,15.07
2023-04-12T03:25:45.707Z,18.48
2023-04-12T03:28:29.701Z,15.15
2023-04-12T03:30:57.911Z,15.07
2023-04-12T03:33:32.856Z,15.20
2023-04-12T03:36:03.072Z,16.17
2023-04-12T03:38:31.895Z,19.95
2023-04-12T03:40:59.460Z,18.25
2023-04-12T03:43:37.330Z,15.13
2023-04-12T03:46:09.365Z,17.17
2023-04-12T03:48:37.781Z,15.85
2023-04-12T03:51:12.125Z,20.10
2023-04-12T03:53:43.672Z,15.23
2023-04-12T03:56:15.395Z,19.88
2023-04-12T03:58:45.469Z,16.45
2023-04-12T04:01:14.045Z,16.15
2023-04-12T04:03:44.970Z,16.63
2023-04-12T04:06:31.634Z,16.52
2023-04-12T04:08:58.741Z,18.63
2023-04-12T04:11:27.395Z,17.77
2023-04-12T04:14:03.869Z,16.25
2023-04-12T04:16:31.522Z,17.02
2023-04-12T04:19:00.639Z,17.88
2023-04-12T04:21:30.545Z,19.63
2023-04-12T04:24:02.546Z,19.17
2023-04-12T04:26:34.891Z,16.27
2023-04-12T04:29:11.928Z,19.00
2023-04-12T04:31:40.025Z,19.10
2023-04-12T04:34:09.460Z,19.25
2023-04-12T04:36:42.060Z,18.15
2023-04-12T04:39:09.899Z,18.77
2023-04-12T04:41:42.242Z,19.38
2023-04-12T04:44:36.101Z,22.23
2023-04-12T04:47:08.608Z,22.45
2023-04-12T04:49:38.865Z,20.92
2023-04-12T04:52:21.341Z,23.73
2023-04-12T04:54:49.748Z,18.67
2023-04-12T04:57:17.301Z,21.83
2023-04-12T04:59:44.837Z,17.40
2023-04-12T05:02:17.545Z,24.20
2023-04-12T05:04:45.584Z,18.15
2023-04-12T05:07:15.912Z,22.42
2023-04-12T05:09:45.489Z,23.00
2023-04-12T05:12:12.759Z,20.98
2023-04-12T05:14:47.992Z,22.55
2023-04-12T05:17:18.735Z,21.30
2023-04-12T05:19:45.760Z,19.23
2023-04-12T05:22:13.966Z,21.70
2023-04-12T05:24:41.439Z,20.15
2023-04-12T05:27:08.927Z,19.02
2023-04-12T05:29:35.872Z,23.80
2023-04-12T05:32:04.438Z,26.65
2023-04-12T05:34:31.689Z,23.42
2023-04-12T05:36:59.902Z,25.10
2023-04-12T05:39:31.760Z,18.17
2023-04-12T05:41:58.923Z,24.40
2023-04-12T05:44:27.169Z,24.98
2023-04-12T05:46:54.268Z,22.55
2023-04-12T05:49:21.637Z,22.95
2023-04-12T05:52:08.573Z,26.10
2023-04-12T05:54:35.930Z,23.83
2023-04-12T05:57:03.394Z,22.58
2023-04-12T05:59:31.236Z,23.65
2023-04-12T06:01:59.225Z,23.30
2023-04-12T06:04:42.161Z,20.00
2023-04-12T06:07:17.828Z,20.88
2023-04-12T06:09:44.982Z,23.25
2023-04-12T06:12:12.085Z,22.38
2023-04-12T06:14:40.387Z,20.17
2023-04-12T06:17:08.489Z,16.48
2023-04-12T06:19:35.557Z,21.98
2023-04-12T06:22:02.624Z,21.00
2023-04-12T06:24:31.640Z,22.80
2023-04-12T06:26:58.621Z,25.58
2023-04-12T06:29:26.278Z,24.45
2023-04-12T06:31:53.426Z,24.58
2023-04-12T06:34:20.554Z,23.63
2023-04-12T06:36:48.063Z,21.08
2023-04-12T06:39:16.285Z,23.17
2023-04-12T06:41:47.664Z,25.05
2023-04-12T06:44:19.467Z,25.52
2023-04-12T06:46:46.622Z,22.42
2023-04-12T06:49:13.699Z,22.85
2023-04-12T06:51:41.008Z,19.00
2023-04-12T06:54:07.935Z,22.88
2023-04-12T06:56:37.197Z,21.60
2023-04-12T06:59:04.504Z,18.85
2023-04-12T07:01:31.698Z,17.33
2023-04-12T07:03:58.776Z,21.15
2023-04-12T07:06:27.608Z,23.58
2023-04-12T07:08:55.065Z,24.10
2023-04-12T07:11:23.070Z,22.13
2023-04-12T07:13:51.687Z,23.17
2023-04-12T07:16:19.027Z,23.10
2023-04-12T07:18:46.360Z,22.30
2023-04-12T07:21:14.525Z,25.42
2023-04-12T07:23:41.651Z,18.65
2023-04-12T07:26:08.611Z,22.60
2023-04-12T07:28:39.228Z,20.80
2023-04-12T07:31:07.119Z,20.83
2023-04-12T07:33:36.084Z,23.50
2023-04-12T07:36:04.872Z,22.67
2023-04-12T07:38:32.082Z,19.50
2023-04-12T07:40:59.005Z,21.15
2023-04-12T07:43:26.098Z,23.38
2023-04-12T07:45:55.803Z,25.85
2023-04-12T07:48:22.815Z,20.73
2023-04-12T07:50:50.534Z,22.73
2023-04-12T07:53:26.463Z,24.05
2023-04-12T07:55:54.521Z,23.70
2023-04-12T07:58:23.347Z,21.55
2023-04-12T08:00:54.528Z,25.30
2023-04-12T08:03:21.945Z,21.08
2023-04-12T08:05:53.751Z,23.85
2023-04-12T08:08:22.390Z,22.38
2023-04-12T08:10:51.078Z,21.67
2023-04-12T08:13:18.830Z,20.67
2023-04-12T08:15:47.470Z,16.80
2023-04-12T08:18:15.280Z,18.95
2023-04-12T08:20:44.200Z,17.70
2023-04-12T08:23:12.042Z,19.27
2023-04-12T08:25:39.736Z,18.02
2023-04-12T08:28:09.474Z,18.50
2023-04-12T08:30:36.704Z,20.73
2023-04-12T08:33:03.717Z,19.48
2023-04-12T08:35:30.864Z,17.65
2023-04-12T08:37:57.990Z,17.85
2023-04-12T08:40:25.616Z,19.67
2023-04-12T08:42:56.040Z,16.77
2023-04-12T08:45:29.212Z,16.70
2023-04-12T08:47:56.683Z,17.70
2023-04-12T08:50:25.704Z,20.38
2023-04-12T08:52:53.221Z,20.45
2023-04-12T08:55:20.435Z,21.10
2023-04-12T08:57:48.364Z,19.38
2023-04-12T09:00:17.088Z,17.50
2023-04-12T09:02:46.998Z,19.40
2023-04-12T09:05:14.969Z,19.17
2023-04-12T09:07:43.249Z,17.55
2023-04-12T09:10:10.402Z,21.00
2023-04-12T09:12:47.095Z,17.08
2023-04-12T09:15:17.666Z,20.60
2023-04-12T09:17:44.883Z,21.17
2023-04-12T09:20:18.112Z,17.95
2023-04-12T09:22:46.503Z,19.15
2023-04-12T09:25:15.162Z,19.15
2023-04-12T09:27:49.756Z,21.73
2023-04-12T09:30:18.313Z,24.30
2023-04-12T09:32:46.258Z,25.23
2023-04-12T09:35:13.320Z,20.88
2023-04-12T09:37:40.768Z,17.80
2023-04-12T09:40:09.729Z,21.75
2023-04-12T09:42:52.232Z,21.52
2023-04-12T09:45:24.402Z,18.00
2023-04-12T09:47:52.814Z,18.48
2023-04-12T09:50:24.515Z,21.80
2023-04-12T09:52:53.132Z,19.42
2023-04-12T09:55:22.812Z,20.17
2023-04-12T09:57:52.246Z,20.48
2023-04-12T10:00:22.469Z,18.63
2023-04-12T10:02:52.290Z,20.90
2023-04-12T10:05:23.069Z,21.00
2023-04-12T10:07:50.795Z,19.75
2023-04-12T10:10:19.905Z,19.80
2023-04-12T10:12:48.625Z,19.38
2023-04-12T10:15:21.098Z,17.67
2023-04-12T10:17:55.309Z,20.38
2023-04-12T10:20:26.159Z,23.95
2023-04-12T10:22:56.189Z,19.60
2023-04-12T10:25:27.326Z,19.48
2023-04-12T10:27:54.367Z,19.40
2023-04-12T10:30:22.847Z,19.20
2023-04-12T10:33:11.341Z,21.55
2023-04-12T10:36:03.509Z,17.25
2023-04-12T10:38:37.399Z,17.08
2023-04-12T10:41:15.552Z,18.50
2023-04-12T10:43:50.176Z,15.38
2023-04-12T10:46:38.670Z,15.80
2023-04-12T10:49:16.745Z,14.65
2023-04-12T10:52:05.574Z,13.85
2023-04-12T10:54:37.262Z,15.38
2023-04-12T10:57:06.737Z,16.80
2023-04-12T10:59:55.662Z,17.35
2023-04-12T11:02:23.035Z,17.58
2023-04-12T11:05:11.885Z,15.57
2023-04-12T11:07:55.304Z,18.25
2023-04-12T11:10:39.732Z,46.72
2023-04-12T11:13:09.477Z,25.85
2023-04-12T11:15:39.789Z,20.10
2023-04-12T11:18:12.430Z,15.45
2023-04-12T11:20:42.796Z,19.67
2023-04-12T11:23:11.781Z,19.10
2023-04-12T11:25:38.952Z,17.52
2023-04-12T11:28:17.222Z,18.45
2023-04-12T11:30:56.391Z,15.30
2023-04-12T11:33:36.158Z,15.82
2023-04-12T11:36:14.560Z,26.08
2023-04-12T11:38:41.894Z,17.23
2023-04-12T11:41:09.692Z,16.33
2023-04-12T11:43:40.356Z,15.85
2023-04-12T11:46:07.610Z,17.70
2023-04-12T11:48:35.076Z,17.38
2023-04-12T11:51:18.086Z,19.10
2023-04-12T11:53:55.977Z,17.70
2023-04-12T11:56:23.949Z,19.08
2023-04-12T11:58:51.393Z,19.52
2023-04-12T12:01:20.321Z,18.92
2023-04-12T12:03:48.115Z,17.02
2023-04-12T12:06:16.623Z,15.90
2023-04-12T12:08:44.231Z,17.88
2023-04-12T12:11:12.031Z,16.63
2023-04-12T12:13:47.422Z,21.52
2023-04-12T12:16:14.519Z,18.67
2023-04-12T12:18:46.273Z,17.75
2023-04-12T12:21:14.984Z,19.58
2023-04-12T12:23:46.138Z,15.93
2023-04-12T12:26:28.035Z,19.13
2023-04-12T12:28:56.900Z,16.20
2023-04-12T12:31:28.339Z,18.77
2023-04-12T12:33:57.390Z,17.98
2023-04-12T12:36:35.918Z,16.88
2023-04-12T12:39:12.914Z,17.60
2023-04-12T12:41:41.173Z,21.17
2023-04-12T12:44:08.903Z,17.33
2023-04-12T12:46:51.993Z,17.83
2023-04-12T12:49:20.847Z,19.73
2023-04-12T12:51:47.832Z,14.15
2023-04-12T12:54:28.503Z,13.50
2023-04-12T12:57:04.410Z,14.25
2023-04-12T12:59:31.408Z,17.25
2023-04-12T13:01:58.412Z,14.73
2023-04-12T13:04:25.624Z,20.50
2023-04-12T13:06:52.692Z,15.18
2023-04-12T13:09:19.611Z,14.93
2023-04-12T13:11:46.735Z,14.52
2023-04-12T13:14:13.656Z,14.95
2023-04-12T13:16:41.134Z,17.60
2023-04-12T13:19:08.197Z,15.52
2023-04-12T13:21:35.242Z,14.68
2023-04-12T13:24:02.124Z,17.17
2023-04-12T13:26:29.196Z,17.63
2023-04-12T13:28:56.555Z,18.00
2023-04-12T13:31:23.771Z,14.68
2023-04-12T13:33:50.804Z,13.82
2023-04-12T13:36:17.729Z,16.27
2023-04-12T13:38:44.622Z,14.50
2023-04-12T13:41:11.631Z,14.18
2023-04-12T13:43:38.547Z,13.68
2023-04-12T13:46:05.829Z,13.05
2023-04-12T13:48:33.147Z,18.50
2023-04-12T13:51:00.222Z,16.55
2023-04-12T13:53:27.160Z,13.88
2023-04-12T13:55:54.054Z,14.05
2023-04-12T13:58:21.093Z,15.48
2023-04-12T14:00:48.282Z,17.70
2023-04-12T14:03:15.308Z,14.52
2023-04-12T14:05:42.265Z,13.73
2023-04-12T14:08:09.285Z,17.42
2023-04-12T14:10:36.268Z,15.25
2023-04-12T14:13:03.601Z,17.42
2023-04-12T14:15:30.555Z,14.48
2023-04-12T14:17:57.570Z,13.98
2023-04-12T14:20:25.116Z,14.52
2023-04-12T14:22:52.090Z,14.75
2023-04-12T14:25:19.139Z,16.80
2023-04-12T14:27:46.111Z,13.32
2023-04-12T14:30:13.377Z,20.25
2023-04-12T14:32:41.244Z,18.58
2023-04-12T14:35:09.505Z,15.13
2023-04-12T14:37:36.511Z,14.68
2023-04-12T14:40:06.473Z,13.70
2023-04-12T14:42:33.607Z,14.77
2023-04-12T14:45:00.907Z,13.13
2023-04-12T14:47:27.810Z,16.13
2023-04-12T14:49:54.732Z,15.48
2023-04-12T14:52:21.829Z,14.63
2023-04-12T14:54:48.773Z,13.98
2023-04-12T14:57:15.808Z,14.85
2023-04-12T14:59:42.798Z,15.30
2023-04-12T15:02:09.987Z,17.45
2023-04-12T15:04:37.334Z,14.98
2023-04-12T15:07:04.406Z,15.20
2023-04-12T15:09:31.354Z,13.55
2023-04-12T15:12:01.472Z,13.73
2023-04-12T15:14:28.978Z,16.58
2023-04-12T15:16:56.156Z,19.25
2023-04-12T15:19:23.948Z,13.85
2023-04-12T15:21:52.559Z,15.32
2023-04-12T15:24:19.824Z,15.95
2023-04-12T15:26:48.593Z,18.92
2023-04-12T15:29:18.673Z,19.48
2023-04-12T15:31:46.089Z,15.60
2023-04-12T15:34:16.109Z,15.40
2023-04-12T15:36:43.773Z,15.68
2023-04-12T15:39:11.337Z,21.20
2023-04-12T15:41:39.629Z,13.93
2023-04-12T15:44:08.426Z,18.08
2023-04-12T15:46:36.287Z,16.52
2023-04-12T15:49:03.882Z,18.63
2023-04-12T15:51:32.086Z,14.80
2023-04-12T15:53:59.312Z,17.60
2023-04-12T15:56:26.499Z,14.57
2023-04-12T15:58:57.995Z,16.05
2023-04-12T16:01:25.344Z,18.50
2023-04-12T16:03:53.194Z,18.52
2023-04-12T16:06:20.980Z,18.83
2023-04-12T16:08:48.593Z,16.10
2023-04-12T16:11:20.199Z,16.52
2023-04-12T16:13:48.520Z,17.42
2023-04-12T16:16:17.813Z,17.42
2023-04-12T16:18:46.190Z,15.13
2023-04-12T16:21:19.717Z,18.98
2023-04-12T16:23:48.308Z,17.05
2023-04-12T16:26:21.854Z,18.80
2023-04-12T16:28:55.824Z,16.20
2023-04-12T16:31:25.258Z,17.15
2023-04-12T16:33:52.820Z,20.17
2023-04-12T16:36:23.360Z,19.20
2023-04-12T16:38:51.714Z,17.58
2023-04-12T16:41:19.015Z,19.05
2023-04-12T16:43:46.018Z,16.67
2023-04-12T16:46:13.113Z,20.27
2023-04-12T16:48:41.600Z,19.98
2023-04-12T16:51:08.894Z,16.48
2023-04-12T16:53:36.627Z,19.83
2023-04-12T16:56:04.491Z,20.85
2023-04-12T16:58:31.639Z,20.17
2023-04-12T17:00:58.840Z,18.52
2023-04-12T17:03:25.961Z,16.98
2023-04-12T17:05:53.114Z,17.02
2023-04-12T17:08:20.066Z,14.15
2023-04-12T17:10:47.096Z,17.80
2023-04-12T17:13:17.803Z,18.25
2023-04-12T17:15:48.000Z,16.77
2023-04-12T17:18:15.502Z,14.48
2023-04-12T17:20:43.190Z,16.40
2023-04-12T17:23:10.621Z,16.55
2023-04-12T17:25:37.939Z,20.17
2023-04-12T17:28:05.266Z,17.00
2023-04-12T17:30:32.551Z,20.98
2023-04-12T17:33:01.684Z,19.85
2023-04-12T17:35:28.983Z,16.95
2023-04-12T17:37:56.419Z,17.05
2023-04-12T17:40:23.388Z,16.85
2023-04-12T17:42:50.535Z,17.50
2023-04-12T17:45:19.240Z,19.50
2023-04-12T17:47:46.268Z,24.95
2023-04-12T17:50:13.871Z,37.13
2023-04-12T17:52:41.055Z,18.40
2023-04-12T17:55:12.509Z,23.10
2023-04-12T17:57:39.763Z,18.30
2023-04-12T18:00:11.793Z,16.52
2023-04-12T18:02:43.909Z,18.05
2023-04-12T18:05:11.887Z,18.90
2023-04-12T18:07:40.249Z,19.45
2023-04-12T18:10:12.744Z,21.45
2023-04-12T18:12:40.831Z,21.33
2023-04-12T18:15:08.589Z,16.42
2023-04-12T18:17:35.854Z,17.80
2023-04-12T18:20:04.880Z,18.88
2023-04-12T18:22:31.929Z,19.27
2023-04-12T18:24:58.896Z,22.08
2023-04-12T18:27:25.810Z,23.85
2023-04-12T18:29:52.897Z,20.08
2023-04-12T18:32:20.054Z,20.83
2023-04-12T18:34:47.047Z,20.80
2023-04-12T18:37:14.200Z,24.73
2023-04-12T18:39:42.792Z,22.80
2023-04-12T18:42:09.820Z,23.95
2023-04-12T18:44:37.773Z,25.45
2023-04-12T18:47:04.872Z,24.77
2023-04-12T18:49:33.523Z,22.55
2023-04-12T18:52:00.699Z,22.98
2023-04-12T18:54:27.843Z,25.23
2023-04-12T18:56:56.436Z,25.88
2023-04-12T18:59:24.267Z,27.20
2023-04-12T19:01:53.267Z,27.30
2023-04-12T19:04:21.014Z,28.95
2023-04-12T19:06:48.031Z,26.55
2023-04-12T19:09:16.812Z,29.15
2023-04-12T19:11:45.791Z,23.52
2023-04-12T19:14:14.688Z,28.05
2023-04-12T19:16:44.389Z,27.35
2023-04-12T19:19:21.072Z,25.90
2023-04-12T19:21:51.161Z,27.30
2023-04-12T19:24:20.068Z,26.85
2023-04-12T19:26:49.194Z,27.02
2023-04-12T19:29:20.052Z,27.05
2023-04-12T19:31:47.634Z,27.95
2023-04-12T19:34:17.992Z,27.77
2023-04-12T19:36:52.731Z,26.00
2023-04-12T19:39:23.994Z,30.23
2023-04-12T19:42:01.332Z,25.25
2023-04-12T19:44:31.451Z,25.00
2023-04-12T19:47:01.351Z,21.00
2023-04-12T19:49:30.814Z,25.42
2023-04-12T19:52:05.605Z,25.30
2023-04-12T19:54:37.374Z,24.17
2023-04-12T19:57:09.644Z,21.52
2023-04-12T19:59:39.127Z,28.40
2023-04-12T20:02:09.713Z,26.00
2023-04-12T20:04:37.220Z,23.60
2023-04-12T20:07:07.091Z,22.77
2023-04-12T20:09:54.729Z,25.48
2023-04-12T20:14:50.616Z,25.13
2023-04-12T20:17:19.844Z,23.25
2023-04-12T20:19:50.002Z,22.85
2023-04-12T20:22:22.843Z,19.55
2023-04-12T20:24:54.100Z,25.83
2023-04-12T20:27:32.355Z,26.70
2023-04-12T20:32:29.308Z,23.70
2023-04-12T20:34:59.347Z,19.35
2023-04-12T20:37:30.648Z,23.48
2023-04-12T20:39:59.503Z,19.95
2023-04-12T20:42:30.270Z,20.65
2023-04-12T20:44:58.480Z,18.75
2023-04-12T20:47:26.030Z,19.80
2023-04-12T20:49:56.880Z,19.60
2023-04-12T20:52:26.469Z,19.95
2023-04-12T20:54:58.301Z,17.52
2023-04-12T20:57:27.586Z,17.23
2023-04-12T20:59:55.439Z,17.35
2023-04-12T21:02:23.091Z,20.33
2023-04-12T21:04:50.864Z,20.02
2023-04-12T21:07:20.144Z,19.10
2023-04-12T21:09:47.107Z,22.40
2023-04-12T21:12:14.052Z,20.85
2023-04-12T21:14:41.487Z,22.85
2023-04-12T21:17:08.571Z,21.17
2023-04-12T21:19:41.987Z,23.42
2023-04-12T21:22:09.132Z,20.67
2023-04-12T21:24:38.537Z,20.33
2023-04-12T21:27:09.522Z,23.95
2023-04-12T21:29:41.716Z,21.38
2023-04-12T21:32:09.309Z,36.40
2023-04-12T21:34:37.413Z,31.50
2023-04-12T21:37:04.573Z,22.45
2023-04-12T21:39:32.386Z,23.92
2023-04-12T21:41:59.290Z,22.35
2023-04-12T21:44:26.825Z,22.65
2023-04-12T21:46:53.746Z,22.60
2023-04-12T21:49:20.986Z,24.30
2023-04-12T21:51:49.221Z,23.02
2023-04-12T21:54:16.729Z,26.55
2023-04-12T21:56:43.820Z,23.33
2023-04-12T21:59:10.856Z,19.30
2023-04-12T22:01:38.093Z,24.75
2023-04-12T22:04:05.916Z,21.52
2023-04-12T22:06:32.948Z,30.20
2023-04-12T22:09:02.005Z,28.33
2023-04-12T22:11:30.515Z,27.23
2023-04-12T22:13:57.835Z,29.77
2023-04-12T22:16:24.956Z,26.02
2023-04-12T22:18:52.790Z,26.73
2023-04-12T22:21:20.667Z,28.80
2023-04-12T22:23:47.632Z,26.75
2023-04-12T22:26:15.269Z,25.63
2023-04-12T22:28:44.182Z,28.70
2023-04-12T22:31:16.483Z,24.23
2023-04-12T22:33:43.766Z,27.98
2023-04-12T22:36:10.973Z,28.13
2023-04-12T22:38:38.353Z,26.50
2023-04-12T22:41:06.403Z,23.42
2023-04-12T22:43:42.159Z,26.25
2023-04-12T22:46:16.184Z,31.42
2023-04-12T22:48:48.010Z,24.85
2023-04-12T22:51:15.380Z,24.92
2023-04-12T22:53:43.383Z,28.05
2023-04-12T22:56:11.274Z,28.70
2023-04-12T22:58:40.199Z,31.40
2023-04-12T23:01:10.924Z,23.98
2023-04-12T23:03:38.187Z,28.95
2023-04-12T23:06:05.438Z,31.45
2023-04-12T23:08:32.349Z,30.63
2023-04-12T23:11:02.474Z,28.83
2023-04-12T23:13:29.912Z,31.38
2023-04-12T23:15:57.685Z,26.52
2023-04-12T23:18:25.782Z,26.17
2023-04-12T23:20:53.998Z,33.90
2023-04-12T23:23:23.067Z,30.20
2023-04-12T23:25:50.666Z,31.13
2023-04-12T23:28:19.490Z,26.63
2023-04-12T23:30:49.116Z,28.40
2023-04-12T23:33:20.819Z,28.23
2023-04-12T23:35:55.932Z,33.92
2023-04-12T23:38:25.926Z,32.63
2023-04-12T23:40:55.690Z,30.33
2023-04-12T23:43:23.725Z,30.55
2023-04-12T23:45:52.230Z,33.72
2023-04-12T23:48:19.417Z,33.97
2023-04-12T23:50:46.577Z,30.20
2023-04-12T23:53:14.116Z,31.50
2023-04-12T23:55:47.031Z,32.58
2023-04-12T23:58:13.945Z,29.58
